sensor_id;sensor_type;location;lat;lon;timestamp;P1;durP1;ratioP1;P2;durP2;ratioP2
18489;SDS011;9374;51.382;-0.156;2022-07-06T00:03:25;2.15;;;0.93;;
18489;SDS011;9374;51.382;-0.156;2022-07-06T00:08:49;3.30;;;0.95;;
18489;SDS011;9374;51.382;-0.156;2022-07-06T00:14:14;1.17;;;0.90;;
18489;SDS011;9374;51.382;-0.156;2022-07-06T00:19:37;1.80;;;0.95;;
18489;SDS011;9374;51.382;-0.156;2022-07-06T00:25:01;2.33;;;0.95;;
18489;SDS011;9374;51.382;-0.156;2022-07-06T00:30:26;0.85;;;0.80;;
18489;SDS011;9374;51.382;-0.156;2022-07-06T00:35:50;2.42;;;1.10;;
18489;SDS011;9374;51.382;-0.156;2022-07-06T00:41:13;2.75;;;0.93;;
18489;SDS011;9374;51.382;-0.156;2022-07-06T00:46:38;1.63;;;0.95;;
18489;SDS011;9374;51.382;-0.156;2022-07-06T00:52:02;3.88;;;1.88;;
18489;SDS011;9374;51.382;-0.156;2022-07-06T00:57:27;2.92;;;1.08;;
18489;SDS011;9374;51.382;-0.156;2022-07-06T01:02:52;2.15;;;0.95;;
18489;SDS011;9374;51.382;-0.156;2022-07-06T01:08:16;2.78;;;1.00;;
18489;SDS011;9374;51.382;-0.156;2022-07-06T01:13:41;2.05;;;0.90;;
18489;SDS011;9374;51.382;-0.156;2022-07-06T01:19:07;1.35;;;0.80;;
18489;SDS011;9374;51.382;-0.156;2022-07-06T01:24:32;2.72;;;1.25;;
18489;SDS011;9374;51.382;-0.156;2022-07-06T01:29:58;2.53;;;1.00;;
18489;SDS011;9374;51.382;-0.156;2022-07-06T01:35:21;3.38;;;1.25;;
18489;SDS011;9374;51.382;-0.156;2022-07-06T01:40:48;2.78;;;0.95;;
18489;SDS011;9374;51.382;-0.156;2022-07-06T01:46:13;1.75;;;0.88;;
18489;SDS011;9374;51.382;-0.156;2022-07-06T01:51:37;4.38;;;1.20;;
18489;SDS011;9374;51.382;-0.156;2022-07-06T01:57:02;4.28;;;1.33;;
18489;SDS011;9374;51.382;-0.156;2022-07-06T02:02:27;5.50;;;1.40;;
18489;SDS011;9374;51.382;-0.156;2022-07-06T02:07:50;3.97;;;1.63;;
18489;SDS011;9374;51.382;-0.156;2022-07-06T02:13:15;3.28;;;1.00;;
18489;SDS011;9374;51.382;-0.156;2022-07-06T02:18:39;2.08;;;1.05;;
18489;SDS011;9374;51.382;-0.156;2022-07-06T02:24:04;3.53;;;1.10;;
18489;SDS011;9374;51.382;-0.156;2022-07-06T02:29:29;2.80;;;1.40;;
18489;SDS011;9374;51.382;-0.156;2022-07-06T02:34:53;2.90;;;1.50;;
18489;SDS011;9374;51.382;-0.156;2022-07-06T02:40:17;3.88;;;1.70;;
18489;SDS011;9374;51.382;-0.156;2022-07-06T02:45:42;2.83;;;1.33;;
18489;SDS011;9374;51.382;-0.156;2022-07-06T02:51:06;5.30;;;1.48;;
18489;SDS011;9374;51.382;-0.156;2022-07-06T02:56:30;4.20;;;1.40;;
18489;SDS011;9374;51.382;-0.156;2022-07-06T03:01:55;6.63;;;1.33;;
18489;SDS011;9374;51.382;-0.156;2022-07-06T03:07:19;3.05;;;1.38;;
18489;SDS011;9374;51.382;-0.156;2022-07-06T03:12:43;3.25;;;1.48;;
18489;SDS011;9374;51.382;-0.156;2022-07-06T03:18:08;2.42;;;1.20;;
18489;SDS011;9374;51.382;-0.156;2022-07-06T03:23:33;4.68;;;1.50;;
18489;SDS011;9374;51.382;-0.156;2022-07-06T03:28:56;4.25;;;1.30;;
18489;SDS011;9374;51.382;-0.156;2022-07-06T03:34:22;3.00;;;1.27;;
18489;SDS011;9374;51.382;-0.156;2022-07-06T03:39:46;3.90;;;1.40;;
18489;SDS011;9374;51.382;-0.156;2022-07-06T03:45:10;4.43;;;1.75;;
18489;SDS011;9374;51.382;-0.156;2022-07-06T03:50:36;4.88;;;1.50;;
18489;SDS011;9374;51.382;-0.156;2022-07-06T03:56:00;2.95;;;1.83;;
18489;SDS011;9374;51.382;-0.156;2022-07-06T04:01:42;3.33;;;1.92;;
18489;SDS011;9374;51.382;-0.156;2022-07-06T04:07:11;4.05;;;1.30;;
18489;SDS011;9374;51.382;-0.156;2022-07-06T04:12:39;3.90;;;1.60;;
18489;SDS011;9374;51.382;-0.156;2022-07-06T04:18:03;4.30;;;1.70;;
18489;SDS011;9374;51.382;-0.156;2022-07-06T04:23:34;4.30;;;1.48;;
18489;SDS011;9374;51.382;-0.156;2022-07-06T04:29:01;7.65;;;1.95;;
18489;SDS011;9374;51.382;-0.156;2022-07-06T04:34:25;1.70;;;1.17;;
18489;SDS011;9374;51.382;-0.156;2022-07-06T04:39:51;6.18;;;1.50;;
18489;SDS011;9374;51.382;-0.156;2022-07-06T04:45:15;4.38;;;1.60;;
18489;SDS011;9374;51.382;-0.156;2022-07-06T04:50:39;5.32;;;1.70;;
18489;SDS011;9374;51.382;-0.156;2022-07-06T04:56:10;4.85;;;1.80;;
18489;SDS011;9374;51.382;-0.156;2022-07-06T05:01:34;8.63;;;1.75;;
18489;SDS011;9374;51.382;-0.156;2022-07-06T05:06:59;4.25;;;1.40;;
18489;SDS011;9374;51.382;-0.156;2022-07-06T05:12:24;3.90;;;1.38;;
18489;SDS011;9374;51.382;-0.156;2022-07-06T05:17:48;3.95;;;1.20;;
18489;SDS011;9374;51.382;-0.156;2022-07-06T05:23:13;5.15;;;1.60;;
18489;SDS011;9374;51.382;-0.156;2022-07-06T05:28:39;7.20;;;1.70;;
18489;SDS011;9374;51.382;-0.156;2022-07-06T05:34:06;4.00;;;1.30;;
18489;SDS011;9374;51.382;-0.156;2022-07-06T05:39:31;4.32;;;1.20;;
18489;SDS011;9374;51.382;-0.156;2022-07-06T05:44:56;4.32;;;1.33;;
18489;SDS011;9374;51.382;-0.156;2022-07-06T05:50:23;4.43;;;1.58;;
18489;SDS011;9374;51.382;-0.156;2022-07-06T05:55:49;3.03;;;1.45;;
18489;SDS011;9374;51.382;-0.156;2022-07-06T06:01:16;3.40;;;1.50;;
18489;SDS011;9374;51.382;-0.156;2022-07-06T06:06:49;2.90;;;1.63;;
18489;SDS011;9374;51.382;-0.156;2022-07-06T06:12:13;3.45;;;1.40;;
18489;SDS011;9374;51.382;-0.156;2022-07-06T06:17:38;4.47;;;1.08;;
18489;SDS011;9374;51.382;-0.156;2022-07-06T06:23:02;5.32;;;2.10;;
18489;SDS011;9374;51.382;-0.156;2022-07-06T06:28:26;5.05;;;1.73;;
18489;SDS011;9374;51.382;-0.156;2022-07-06T06:33:51;3.53;;;1.63;;
18489;SDS011;9374;51.382;-0.156;2022-07-06T06:39:16;6.43;;;1.50;;
18489;SDS011;9374;51.382;-0.156;2022-07-06T06:44:40;7.45;;;1.50;;
18489;SDS011;9374;51.382;-0.156;2022-07-06T06:50:05;6.53;;;1.50;;
18489;SDS011;9374;51.382;-0.156;2022-07-06T06:55:29;4.75;;;1.27;;
18489;SDS011;9374;51.382;-0.156;2022-07-06T07:00:53;3.45;;;1.38;;
18489;SDS011;9374;51.382;-0.156;2022-07-06T07:06:18;4.20;;;1.40;;
18489;SDS011;9374;51.382;-0.156;2022-07-06T07:11:42;5.32;;;1.45;;
18489;SDS011;9374;51.382;-0.156;2022-07-06T07:17:06;5.40;;;1.73;;
18489;SDS011;9374;51.382;-0.156;2022-07-06T07:22:31;3.75;;;1.60;;
18489;SDS011;9374;51.382;-0.156;2022-07-06T07:27:54;5.78;;;1.17;;
18489;SDS011;9374;51.382;-0.156;2022-07-06T07:33:18;3.42;;;1.30;;
18489;SDS011;9374;51.382;-0.156;2022-07-06T07:38:44;1.75;;;1.13;;
18489;SDS011;9374;51.382;-0.156;2022-07-06T07:44:07;1.92;;;1.10;;
18489;SDS011;9374;51.382;-0.156;2022-07-06T07:49:31;1.67;;;1.00;;
18489;SDS011;9374;51.382;-0.156;2022-07-06T07:54:56;1.77;;;1.35;;
18489;SDS011;9374;51.382;-0.156;2022-07-06T08:00:40;2.70;;;1.20;;
18489;SDS011;9374;51.382;-0.156;2022-07-06T08:06:03;3.85;;;1.52;;
18489;SDS011;9374;51.382;-0.156;2022-07-06T08:11:28;1.17;;;1.08;;
18489;SDS011;9374;51.382;-0.156;2022-07-06T08:16:52;3.42;;;1.40;;
18489;SDS011;9374;51.382;-0.156;2022-07-06T08:22:16;2.30;;;1.40;;
18489;SDS011;9374;51.382;-0.156;2022-07-06T08:27:41;2.95;;;1.40;;
18489;SDS011;9374;51.382;-0.156;2022-07-06T08:33:05;3.22;;;1.55;;
18489;SDS011;9374;51.382;-0.156;2022-07-06T08:38:29;3.33;;;1.73;;
18489;SDS011;9374;51.382;-0.156;2022-07-06T08:43:54;1.45;;;0.98;;
18489;SDS011;9374;51.382;-0.156;2022-07-06T08:49:18;2.72;;;1.17;;
18489;SDS011;9374;51.382;-0.156;2022-07-06T08:54:43;0.88;;;0.88;;
18489;SDS011;9374;51.382;-0.156;2022-07-06T09:00:11;0.98;;;0.88;;
18489;SDS011;9374;51.382;-0.156;2022-07-06T09:05:53;2.83;;;1.27;;
18489;SDS011;9374;51.382;-0.156;2022-07-06T09:11:21;1.77;;;1.20;;
18489;SDS011;9374;51.382;-0.156;2022-07-06T09:16:51;0.80;;;0.80;;
18489;SDS011;9374;51.382;-0.156;2022-07-06T09:22:27;1.20;;;0.88;;
18489;SDS011;9374;51.382;-0.156;2022-07-06T09:27:53;1.95;;;0.93;;
18489;SDS011;9374;51.382;-0.156;2022-07-06T09:33:18;1.25;;;0.80;;
18489;SDS011;9374;51.382;-0.156;2022-07-06T09:38:42;1.58;;;0.98;;
18489;SDS011;9374;51.382;-0.156;2022-07-06T09:44:06;1.55;;;1.00;;
18489;SDS011;9374;51.382;-0.156;2022-07-06T09:49:31;3.25;;;0.82;;
18489;SDS011;9374;51.382;-0.156;2022-07-06T09:54:55;1.02;;;0.65;;
18489;SDS011;9374;51.382;-0.156;2022-07-06T10:00:19;2.25;;;0.95;;
18489;SDS011;9374;51.382;-0.156;2022-07-06T10:05:44;2.22;;;1.17;;
18489;SDS011;9374;51.382;-0.156;2022-07-06T10:11:10;1.08;;;0.73;;
18489;SDS011;9374;51.382;-0.156;2022-07-06T10:16:37;2.83;;;0.70;;
18489;SDS011;9374;51.382;-0.156;2022-07-06T10:22:03;2.58;;;1.40;;
18489;SDS011;9374;51.382;-0.156;2022-07-06T10:27:28;3.33;;;1.13;;
18489;SDS011;9374;51.382;-0.156;2022-07-06T10:32:52;1.63;;;1.20;;
18489;SDS011;9374;51.382;-0.156;2022-07-06T10:38:19;1.75;;;1.00;;
18489;SDS011;9374;51.382;-0.156;2022-07-06T10:43:43;0.82;;;0.80;;
18489;SDS011;9374;51.382;-0.156;2022-07-06T10:49:14;1.27;;;0.70;;
18489;SDS011;9374;51.382;-0.156;2022-07-06T10:55:00;2.92;;;0.82;;
18489;SDS011;9374;51.382;-0.156;2022-07-06T11:00:24;0.80;;;0.80;;
18489;SDS011;9374;51.382;-0.156;2022-07-06T11:05:48;1.15;;;0.77;;
18489;SDS011;9374;51.382;-0.156;2022-07-06T11:11:44;0.50;;;0.50;;
18489;SDS011;9374;51.382;-0.156;2022-07-06T11:17:11;1.10;;;0.80;;
18489;SDS011;9374;51.382;-0.156;2022-07-06T11:22:36;1.30;;;0.77;;
18489;SDS011;9374;51.382;-0.156;2022-07-06T11:28:02;0.70;;;0.70;;
18489;SDS011;9374;51.382;-0.156;2022-07-06T11:33:28;0.85;;;0.50;;
18489;SDS011;9374;51.382;-0.156;2022-07-06T11:38:52;8.98;;;1.35;;
18489;SDS011;9374;51.382;-0.156;2022-07-06T11:44:18;1.88;;;0.70;;
18489;SDS011;9374;51.382;-0.156;2022-07-06T11:49:41;0.70;;;0.70;;
18489;SDS011;9374;51.382;-0.156;2022-07-06T11:55:08;0.45;;;0.40;;
18489;SDS011;9374;51.382;-0.156;2022-07-06T12:00:33;1.85;;;1.00;;
18489;SDS011;9374;51.382;-0.156;2022-07-06T12:06:04;0.73;;;0.50;;
18489;SDS011;9374;51.382;-0.156;2022-07-06T12:11:29;0.50;;;0.50;;
18489;SDS011;9374;51.382;-0.156;2022-07-06T12:16:55;3.20;;;0.60;;
18489;SDS011;9374;51.382;-0.156;2022-07-06T12:22:24;0.40;;;0.40;;
18489;SDS011;9374;51.382;-0.156;2022-07-06T12:27:48;0.98;;;0.70;;
18489;SDS011;9374;51.382;-0.156;2022-07-06T12:33:16;1.35;;;0.52;;
18489;SDS011;9374;51.382;-0.156;2022-07-06T12:38:43;0.93;;;0.52;;
18489;SDS011;9374;51.382;-0.156;2022-07-06T12:44:09;0.77;;;0.52;;
18489;SDS011;9374;51.382;-0.156;2022-07-06T12:49:34;0.40;;;0.40;;
18489;SDS011;9374;51.382;-0.156;2022-07-06T12:54:59;0.85;;;0.50;;
18489;SDS011;9374;51.382;-0.156;2022-07-06T13:00:29;0.75;;;0.65;;
18489;SDS011;9374;51.382;-0.156;2022-07-06T13:06:09;1.02;;;0.52;;
18489;SDS011;9374;51.382;-0.156;2022-07-06T13:11:33;0.98;;;0.80;;
18489;SDS011;9374;51.382;-0.156;2022-07-06T13:16:57;3.13;;;0.90;;
18489;SDS011;9374;51.382;-0.156;2022-07-06T13:22:22;1.10;;;0.82;;
18489;SDS011;9374;51.382;-0.156;2022-07-06T13:27:46;0.70;;;0.50;;
18489;SDS011;9374;51.382;-0.156;2022-07-06T13:33:09;2.65;;;1.08;;
18489;SDS011;9374;51.382;-0.156;2022-07-06T13:38:34;1.30;;;0.70;;
18489;SDS011;9374;51.382;-0.156;2022-07-06T13:43:58;0.60;;;0.60;;
18489;SDS011;9374;51.382;-0.156;2022-07-06T13:49:22;0.93;;;0.57;;
18489;SDS011;9374;51.382;-0.156;2022-07-06T13:54:54;1.30;;;0.50;;
18489;SDS011;9374;51.382;-0.156;2022-07-06T14:00:23;0.73;;;0.63;;
18489;SDS011;9374;51.382;-0.156;2022-07-06T14:05:47;0.88;;;0.80;;
18489;SDS011;9374;51.382;-0.156;2022-07-06T14:11:12;1.42;;;0.95;;
18489;SDS011;9374;51.382;-0.156;2022-07-06T14:16:36;0.82;;;0.70;;
18489;SDS011;9374;51.382;-0.156;2022-07-06T14:22:03;0.55;;;0.50;;
18489;SDS011;9374;51.382;-0.156;2022-07-06T14:27:28;0.85;;;0.55;;
18489;SDS011;9374;51.382;-0.156;2022-07-06T14:32:52;1.38;;;0.80;;
18489;SDS011;9374;51.382;-0.156;2022-07-06T14:38:16;0.50;;;0.50;;
18489;SDS011;9374;51.382;-0.156;2022-07-06T14:43:42;1.17;;;0.60;;
18489;SDS011;9374;51.382;-0.156;2022-07-06T14:49:06;2.22;;;0.50;;
18489;SDS011;9374;51.382;-0.156;2022-07-06T14:54:29;0.95;;;0.50;;
18489;SDS011;9374;51.382;-0.156;2022-07-06T14:59:54;2.63;;;0.80;;
18489;SDS011;9374;51.382;-0.156;2022-07-06T15:05:18;0.90;;;0.90;;
18489;SDS011;9374;51.382;-0.156;2022-07-06T15:10:42;0.80;;;0.70;;
18489;SDS011;9374;51.382;-0.156;2022-07-06T15:16:07;1.13;;;0.70;;
18489;SDS011;9374;51.382;-0.156;2022-07-06T15:21:31;1.75;;;0.80;;
18489;SDS011;9374;51.382;-0.156;2022-07-06T15:26:54;3.10;;;1.00;;
18489;SDS011;9374;51.382;-0.156;2022-07-06T15:32:20;0.77;;;0.70;;
18489;SDS011;9374;51.382;-0.156;2022-07-06T15:37:44;3.92;;;0.77;;
18489;SDS011;9374;51.382;-0.156;2022-07-06T15:43:15;1.45;;;0.43;;
18489;SDS011;9374;51.382;-0.156;2022-07-06T15:48:40;0.60;;;0.40;;
18489;SDS011;9374;51.382;-0.156;2022-07-06T15:54:04;0.90;;;0.60;;
18489;SDS011;9374;51.382;-0.156;2022-07-06T15:59:27;0.57;;;0.57;;
18489;SDS011;9374;51.382;-0.156;2022-07-06T16:04:52;0.50;;;0.50;;
18489;SDS011;9374;51.382;-0.156;2022-07-06T16:10:16;0.82;;;0.70;;
18489;SDS011;9374;51.382;-0.156;2022-07-06T16:15:40;1.02;;;0.70;;
18489;SDS011;9374;51.382;-0.156;2022-07-06T16:21:05;0.80;;;0.80;;
18489;SDS011;9374;51.382;-0.156;2022-07-06T16:26:29;0.50;;;0.50;;
18489;SDS011;9374;51.382;-0.156;2022-07-06T16:31:53;2.03;;;0.43;;
18489;SDS011;9374;51.382;-0.156;2022-07-06T16:37:18;0.50;;;0.40;;
18489;SDS011;9374;51.382;-0.156;2022-07-06T16:42:42;1.42;;;0.52;;
18489;SDS011;9374;51.382;-0.156;2022-07-06T16:48:05;0.70;;;0.65;;
18489;SDS011;9374;51.382;-0.156;2022-07-06T16:53:30;0.40;;;0.40;;
18489;SDS011;9374;51.382;-0.156;2022-07-06T16:58:55;0.50;;;0.50;;
18489;SDS011;9374;51.382;-0.156;2022-07-06T17:04:21;1.30;;;0.85;;
18489;SDS011;9374;51.382;-0.156;2022-07-06T17:09:46;1.90;;;0.40;;
18489;SDS011;9374;51.382;-0.156;2022-07-06T17:15:15;1.05;;;0.77;;
18489;SDS011;9374;51.382;-0.156;2022-07-06T17:20:39;1.75;;;0.70;;
18489;SDS011;9374;51.382;-0.156;2022-07-06T17:26:04;1.60;;;0.50;;
18489;SDS011;9374;51.382;-0.156;2022-07-06T17:31:28;0.85;;;0.40;;
18489;SDS011;9374;51.382;-0.156;2022-07-06T17:36:52;0.60;;;0.60;;
18489;SDS011;9374;51.382;-0.156;2022-07-06T17:42:18;1.63;;;0.40;;
18489;SDS011;9374;51.382;-0.156;2022-07-06T17:47:42;1.20;;;0.52;;
18489;SDS011;9374;51.382;-0.156;2022-07-06T17:53:06;0.73;;;0.52;;
18489;SDS011;9374;51.382;-0.156;2022-07-06T17:58:31;1.17;;;0.75;;
18489;SDS011;9374;51.382;-0.156;2022-07-06T18:03:55;0.98;;;0.50;;
18489;SDS011;9374;51.382;-0.156;2022-07-06T18:09:18;0.70;;;0.30;;
18489;SDS011;9374;51.382;-0.156;2022-07-06T18:14:43;1.05;;;0.40;;
18489;SDS011;9374;51.382;-0.156;2022-07-06T18:20:07;0.65;;;0.55;;
18489;SDS011;9374;51.382;-0.156;2022-07-06T18:25:32;0.85;;;0.50;;
18489;SDS011;9374;51.382;-0.156;2022-07-06T18:30:57;0.52;;;0.50;;
18489;SDS011;9374;51.382;-0.156;2022-07-06T18:36:21;2.13;;;0.60;;
18489;SDS011;9374;51.382;-0.156;2022-07-06T18:41:48;1.02;;;0.57;;
18489;SDS011;9374;51.382;-0.156;2022-07-06T18:47:18;1.10;;;0.80;;
18489;SDS011;9374;51.382;-0.156;2022-07-06T18:52:47;4.03;;;0.70;;
18489;SDS011;9374;51.382;-0.156;2022-07-06T18:58:11;0.73;;;0.50;;
18489;SDS011;9374;51.382;-0.156;2022-07-06T19:03:36;4.35;;;0.98;;
18489;SDS011;9374;51.382;-0.156;2022-07-06T19:09:00;0.50;;;0.50;;
18489;SDS011;9374;51.382;-0.156;2022-07-06T19:14:24;1.13;;;0.70;;
18489;SDS011;9374;51.382;-0.156;2022-07-06T19:19:49;1.35;;;0.95;;
18489;SDS011;9374;51.382;-0.156;2022-07-06T19:25:13;1.02;;;0.82;;
18489;SDS011;9374;51.382;-0.156;2022-07-06T19:30:39;1.48;;;0.77;;
18489;SDS011;9374;51.382;-0.156;2022-07-06T19:36:05;0.80;;;0.73;;
18489;SDS011;9374;51.382;-0.156;2022-07-06T19:41:29;1.90;;;1.00;;
18489;SDS011;9374;51.382;-0.156;2022-07-06T19:46:52;1.17;;;0.70;;
18489;SDS011;9374;51.382;-0.156;2022-07-06T19:52:18;0.85;;;0.70;;
18489;SDS011;9374;51.382;-0.156;2022-07-06T19:57:43;0.90;;;0.57;;
18489;SDS011;9374;51.382;-0.156;2022-07-06T20:03:06;0.60;;;0.60;;
18489;SDS011;9374;51.382;-0.156;2022-07-06T20:08:32;1.55;;;0.63;;
18489;SDS011;9374;51.382;-0.156;2022-07-06T20:13:55;0.88;;;0.82;;
18489;SDS011;9374;51.382;-0.156;2022-07-06T20:19:19;1.55;;;0.80;;
18489;SDS011;9374;51.382;-0.156;2022-07-06T20:24:44;1.77;;;0.65;;
18489;SDS011;9374;51.382;-0.156;2022-07-06T20:30:08;0.98;;;0.88;;
18489;SDS011;9374;51.382;-0.156;2022-07-06T20:35:33;1.80;;;0.95;;
18489;SDS011;9374;51.382;-0.156;2022-07-06T20:40:58;0.70;;;0.60;;
18489;SDS011;9374;51.382;-0.156;2022-07-06T20:46:22;1.63;;;0.70;;
18489;SDS011;9374;51.382;-0.156;2022-07-06T20:51:46;1.17;;;0.60;;
18489;SDS011;9374;51.382;-0.156;2022-07-06T20:57:11;1.27;;;0.80;;
18489;SDS011;9374;51.382;-0.156;2022-07-06T21:08:19;2.50;;;0.60;;
18489;SDS011;9374;51.382;-0.156;2022-07-06T21:13:44;0.93;;;0.50;;
18489;SDS011;9374;51.382;-0.156;2022-07-06T21:19:08;1.15;;;0.70;;
18489;SDS011;9374;51.382;-0.156;2022-07-06T21:24:31;1.48;;;0.52;;
18489;SDS011;9374;51.382;-0.156;2022-07-06T21:29:57;0.60;;;0.60;;
18489;SDS011;9374;51.382;-0.156;2022-07-06T21:35:22;2.05;;;0.50;;
18489;SDS011;9374;51.382;-0.156;2022-07-06T21:40:46;0.70;;;0.70;;
18489;SDS011;9374;51.382;-0.156;2022-07-06T21:46:11;0.40;;;0.40;;
18489;SDS011;9374;51.382;-0.156;2022-07-06T21:51:35;1.08;;;0.60;;
18489;SDS011;9374;51.382;-0.156;2022-07-06T21:56:58;1.50;;;0.90;;
18489;SDS011;9374;51.382;-0.156;2022-07-06T22:02:23;1.58;;;0.50;;
18489;SDS011;9374;51.382;-0.156;2022-07-06T22:07:47;0.50;;;0.40;;
18489;SDS011;9374;51.382;-0.156;2022-07-06T22:13:12;1.35;;;0.55;;
18489;SDS011;9374;51.382;-0.156;2022-07-06T22:18:52;0.82;;;0.55;;
18489;SDS011;9374;51.382;-0.156;2022-07-06T22:24:16;1.23;;;0.40;;
18489;SDS011;9374;51.382;-0.156;2022-07-06T22:29:40;0.65;;;0.63;;
18489;SDS011;9374;51.382;-0.156;2022-07-06T22:35:06;0.77;;;0.77;;
18489;SDS011;9374;51.382;-0.156;2022-07-06T22:40:31;1.13;;;0.63;;
18489;SDS011;9374;51.382;-0.156;2022-07-06T22:46:12;1.10;;;0.55;;
18489;SDS011;9374;51.382;-0.156;2022-07-06T22:51:40;1.15;;;0.65;;
18489;SDS011;9374;51.382;-0.156;2022-07-06T22:57:04;0.50;;;0.30;;
18489;SDS011;9374;51.382;-0.156;2022-07-06T23:02:29;0.73;;;0.50;;
18489;SDS011;9374;51.382;-0.156;2022-07-06T23:07:54;0.50;;;0.50;;
18489;SDS011;9374;51.382;-0.156;2022-07-06T23:13:18;1.60;;;0.70;;
18489;SDS011;9374;51.382;-0.156;2022-07-06T23:18:43;1.38;;;0.60;;
18489;SDS011;9374;51.382;-0.156;2022-07-06T23:24:09;1.02;;;0.60;;
18489;SDS011;9374;51.382;-0.156;2022-07-06T23:29:33;1.67;;;0.50;;
18489;SDS011;9374;51.382;-0.156;2022-07-06T23:34:57;0.75;;;0.43;;
18489;SDS011;9374;51.382;-0.156;2022-07-06T23:40:23;0.90;;;0.60;;
18489;SDS011;9374;51.382;-0.156;2022-07-06T23:45:47;1.38;;;0.70;;
18489;SDS011;9374;51.382;-0.156;2022-07-06T23:51:11;1.33;;;0.70;;
18489;SDS011;9374;51.382;-0.156;2022-07-06T23:56:37;1.42;;;0.80;;
